Time;durP1;ratioP1;P1;durP2;ratioP2;P2;SDS_P1;SDS_P2;PMS_P1;PMS_P2;Temp;Humidity;BMP_temperature;BMP_pressure;BME280_temperature;BME280_humidity;BME280_pressure;Samples;Min_cycle;Max_cycle;Signal;HPM_P1;HPM_P2
2022/10/31 00:00:47;;;;;;;8.5;3.2;;;;;;;12.25;76.05566;942.4844;;;;
2022/10/31 00:03:30;;;;;;;7.7;2.8;;;;;;;12.05;76.86914;942.4645;;;;
2022/10/31 00:06:11;;;;;;;8.7;3.3;;;;;;;11.78;77.98926;942.4631;;;;
2022/10/31 00:09:01;;;;;;;5.7;2.4;;;;;;;11.55;78.95605;942.4235;;;;
2022/10/31 00:11:40;;;;;;;5.8;2.3;;;;;;;11.62;78.88672;942.3663;;;;
2022/10/31 00:14:26;;;;;;;5.3;2.7;;;;;;;11.67;78.54395;942.4196;;;;
2022/10/31 00:17:25;;;;;;;6.4;2.8;;;;;;;11.56;78.77441;942.4299;;;;
2022/10/31 00:20:11;;;;;;;6.4;2.9;;;;;;;11.52;78.92578;942.4253;;;;
2022/10/31 00:22:43;;;;;;;7.6;2.7;;;;;;;11.64;78.59473;942.4567;;;;
2022/10/31 00:25:10;;;;;;;7.4;3.8;;;;;;;11.77;78.31934;942.4191;;;;
2022/10/31 00:27:44;;;;;;;7.1;3.9;;;;;;;11.88;77.89258;942.4697;;;;
2022/10/31 00:30:29;;;;;;;8.5;3.6;;;;;;;11.95;77.56152;942.4711;;;;
2022/10/31 00:33:01;;;;;;;8.5;3;;;;;;;11.84;77.47363;942.4572;;;;
2022/10/31 00:35:26;;;;;;;7.5;2.9;;;;;;;11.81;77.75488;942.4353;;;;
2022/10/31 00:37:55;;;;;;;5.8;2.7;;;;;;;11.83;77.4248;942.4938;;;;
2022/10/31 00:40:21;;;;;;;7.9;2.6;;;;;;;11.74;77.67383;942.4539;;;;
2022/10/31 00:42:51;;;;;;;6.4;3;;;;;;;11.55;78.29199;942.4497;;;;
2022/10/31 00:45:16;;;;;;;6.8;2.5;;;;;;;11.58;78.09082;942.4668;;;;
2022/10/31 00:47:45;;;;;;;7.3;3.1;;;;;;;11.67;77.37598;942.4866;;;;
2022/10/31 00:50:10;;;;;;;7.8;3.3;;;;;;;11.65;77.3252;942.4664;;;;
2022/10/31 00:52:39;;;;;;;7.6;3.1;;;;;;;11.6;77.625;942.4981;;;;
2022/10/31 00:55:04;;;;;;;5.4;3.2;;;;;;;11.65;77.39355;942.5206;;;;
2022/10/31 00:57:33;;;;;;;6.4;2.9;;;;;;;11.56;77.5498;942.4889;;;;
2022/10/31 01:00:00;;;;;;;6.6;2.6;;;;;;;11.38;78.35254;942.508;;;;
2022/10/31 01:02:25;;;;;;;8.4;2.8;;;;;;;11.4;78.35547;942.4747;;;;
2022/10/31 01:04:54;;;;;;;6.8;2.8;;;;;;;11.41;78.3457;942.4963;;;;
2022/10/31 01:07:19;;;;;;;6.5;2.4;;;;;;;11.32;78.48926;942.4402;;;;
2022/10/31 01:09:45;;;;;;;8.5;2.5;;;;;;;11.29;78.73633;942.4922;;;;
2022/10/31 01:12:10;;;;;;;4.7;2.5;;;;;;;11.36;78.61035;942.4525;;;;
2022/10/31 01:14:39;;;;;;;4.1;2.1;;;;;;;11.47;78.09277;942.4678;;;;
2022/10/31 01:17:04;;;;;;;6.5;2.5;;;;;;;11.53;77.7373;942.4063;;;;
2022/10/31 01:19:33;;;;;;;4.3;2;;;;;;;11.61;77.16699;942.4416;;;;
2022/10/31 01:21:58;;;;;;;5.2;2.3;;;;;;;11.53;78.09375;942.4742;;;;
2022/10/31 01:24:26;;;;;;;5.8;2.7;;;;;;;11.53;78.26367;942.4399;;;;
2022/10/31 01:26:51;;;;;;;6.5;2.7;;;;;;;11.53;78.03516;942.5165;;;;
2022/10/31 01:29:16;;;;;;;7;2.5;;;;;;;11.46;77.95508;942.4597;;;;
2022/10/31 01:31:45;;;;;;;10.5;3;;;;;;;11.45;77.80273;942.4628;;;;
2022/10/31 01:34:10;;;;;;;5.7;2.9;;;;;;;11.45;77.66602;942.5051;;;;
2022/10/31 01:36:35;;;;;;;5.1;2.6;;;;;;;11.38;77.82617;942.476;;;;
2022/10/31 01:39:01;;;;;;;7.3;2.6;;;;;;;11.39;77.77051;942.4673;;;;
2022/10/31 01:41:26;;;;;;;6.6;2.9;;;;;;;11.27;78.40137;942.4547;;;;
2022/10/31 01:43:51;;;;;;;8.2;2.5;;;;;;;11.19;78.82129;942.5083;;;;
2022/10/31 01:46:16;;;;;;;4.2;1.8;;;;;;;11.22;78.58594;942.4643;;;;
2022/10/31 01:48:41;;;;;;;5.4;2.2;;;;;;;11.18;78.58887;942.4467;;;;
2022/10/31 01:51:06;;;;;;;6.5;2.5;;;;;;;11.22;78.63184;942.4165;;;;
2022/10/31 01:53:32;;;;;;;5.9;2.5;;;;;;;11.15;79.03027;942.4279;;;;
2022/10/31 01:56:03;;;;;;;6.1;2.5;;;;;;;11.15;78.83594;942.3761;;;;
2022/10/31 01:58:28;;;;;;;5.9;2.5;;;;;;;11.16;78.82813;942.4305;;;;
2022/10/31 02:00:53;;;;;;;5;2.5;;;;;;;11.15;78.93848;942.3945;;;;
2022/10/31 02:03:18;;;;;;;6.4;2.5;;;;;;;11.13;78.90234;942.3767;;;;
2022/10/31 02:05:43;;;;;;;5;2.3;;;;;;;11.03;79.33984;942.3347;;;;
2022/10/31 02:08:11;;;;;;;7;2.7;;;;;;;10.98;79.60645;942.4333;;;;
2022/10/31 02:10:36;;;;;;;4.2;2.5;;;;;;;11.05;79.14746;942.4369;;;;
2022/10/31 02:13:01;;;;;;;5;1.9;;;;;;;11.05;79.13965;942.4314;;;;
2022/10/31 02:15:33;;;;;;;4.9;2.2;;;;;;;11.05;78.90918;942.4361;;;;
2022/10/31 02:17:58;;;;;;;6.3;2.4;;;;;;;10.97;79.11133;942.4673;;;;
2022/10/31 02:20:24;;;;;;;5.1;2.1;;;;;;;10.86;79.56152;942.4355;;;;
2022/10/31 02:22:51;;;;;;;6.4;2.3;;;;;;;10.75;80.00684;942.4573;;;;
2022/10/31 02:25:20;;;;;;;6.6;2.4;;;;;;;10.77;79.85352;942.4808;;;;
2022/10/31 02:27:47;;;;;;;3.6;2;;;;;;;10.82;79.73633;942.4986;;;;
2022/10/31 02:30:14;;;;;;;6.1;2.3;;;;;;;10.76;79.85059;942.4496;;;;
2022/10/31 02:32:39;;;;;;;6;2.5;;;;;;;10.7;80.12402;942.4677;;;;
2022/10/31 02:35:05;;;;;;;4.5;2.2;;;;;;;10.62;80.46484;942.4953;;;;
2022/10/31 02:37:31;;;;;;;5.9;2.4;;;;;;;10.48;81.14551;942.4783;;;;
2022/10/31 02:39:57;;;;;;;5.9;2.9;;;;;;;10.46;81.47168;942.4247;;;;
2022/10/31 02:42:29;;;;;;;8.3;3;;;;;;;10.56;81.06934;942.4421;;;;
2022/10/31 02:44:54;;;;;;;6.6;3;;;;;;;10.66;80.4375;942.4593;;;;
2022/10/31 02:47:20;;;;;;;4.8;2.6;;;;;;;10.66;80.44922;942.4536;;;;
2022/10/31 02:49:45;;;;;;;9.4;2.8;;;;;;;10.44;81.28613;942.4673;;;;
2022/10/31 02:52:10;;;;;;;5.2;2.2;;;;;;;10.3;81.84375;942.4958;;;;
2022/10/31 02:54:35;;;;;;;7.4;2.2;;;;;;;10.29;81.97754;942.4796;;;;
2022/10/31 02:57:00;;;;;;;6.6;2.3;;;;;;;10.12;82.92578;942.4139;;;;
2022/10/31 02:59:25;;;;;;;5.7;2;;;;;;;10.08;83.08789;942.4658;;;;
2022/10/31 03:01:50;;;;;;;6;2.3;;;;;;;9.89;83.96582;942.4692;;;;
2022/10/31 03:04:16;;;;;;;4.4;2.3;;;;;;;9.88;84.26074;942.4358;;;;
2022/10/31 03:06:43;;;;;;;5.7;2.3;;;;;;;9.82;84.50977;942.4846;;;;
2022/10/31 03:09:08;;;;;;;5.3;1.9;;;;;;;9.88;84.2832;942.4205;;;;
2022/10/31 03:11:33;;;;;;;3.9;1.9;;;;;;;9.93;83.8584;942.4119;;;;
2022/10/31 03:13:58;;;;;;;4.7;2.2;;;;;;;9.89;83.96582;942.3904;;;;
2022/10/31 03:16:25;;;;;;;5.6;1.9;;;;;;;10;83.50781;942.4133;;;;
2022/10/31 03:18:50;;;;;;;6.6;1.9;;;;;;;10.1;82.68262;942.4048;;;;
2022/10/31 03:21:15;;;;;;;6.2;2.1;;;;;;;10.08;82.67969;942.4301;;;;
2022/10/31 03:23:40;;;;;;;5.5;2.2;;;;;;;10.12;82.45801;942.3933;;;;
2022/10/31 03:26:05;;;;;;;5.9;1.9;;;;;;;9.99;82.89063;942.378;;;;
2022/10/31 03:28:30;;;;;;;6.1;2;;;;;;;9.85;83.65039;942.4447;;;;
2022/10/31 03:30:56;;;;;;;6.3;2.3;;;;;;;9.77;84.16895;942.3736;;;;
2022/10/31 03:33:21;;;;;;;4.4;2;;;;;;;9.75;84.35938;942.3867;;;;
2022/10/31 03:35:50;;;;;;;10.2;2.1;;;;;;;9.65;84.94336;942.3951;;;;
2022/10/31 03:38:15;;;;;;;3.3;1.9;;;;;;;9.62;85.17578;942.3937;;;;
2022/10/31 03:40:42;;;;;;;6.4;1.9;;;;;;;9.6;85.06055;942.4036;;;;
2022/10/31 03:43:07;;;;;;;5.7;2.5;;;;;;;9.65;84.85254;942.4319;;;;
2022/10/31 03:45:35;;;;;;;4;1.8;;;;;;;9.58;84.8291;942.4238;;;;
2022/10/31 03:48:00;;;;;;;6.1;2.3;;;;;;;9.49;85.28809;942.4649;;;;
2022/10/31 03:50:25;;;;;;;8.1;2.1;;;;;;;9.44;85.46094;942.4695;;;;
2022/10/31 03:52:50;;;;;;;3.8;1.9;;;;;;;9.45;85.4873;942.4865;;;;
2022/10/31 03:55:20;;;;;;;4.5;2;;;;;;;9.36;86.09375;942.365;;;;
2022/10/31 03:57:44;;;;;;;5.2;2.3;;;;;;;9.48;85.58203;942.4353;;;;
2022/10/31 04:00:10;;;;;;;7.2;2.2;;;;;;;9.51;85.23633;942.4383;;;;
2022/10/31 04:02:43;;;;;;;7.7;2.3;;;;;;;9.55;84.87891;942.4192;;;;
2022/10/31 04:05:08;;;;;;;6.2;2.5;;;;;;;;;;;;;
2022/10/31 04:07:34;;;;;;;8.7;2.7;;;;;;;;;;;;;
2022/10/31 04:09:59;;;;;;;6.7;2.2;;;;;;;;;;;;;
2022/10/31 04:12:27;;;;;;;4.3;1.9;;;;;;;;;;;;;
2022/10/31 04:14:52;;;;;;;3.7;2;;;;;;;;;;;;;
2022/10/31 04:17:18;;;;;;;6.2;2.1;;;;;;;;;;;;;
2022/10/31 04:19:43;;;;;;;4.3;1.9;;;;;;;;;;;;;
2022/10/31 04:22:10;;;;;;;5.5;2.3;;;;;;;;;;;;;
2022/10/31 04:24:35;;;;;;;6.6;2.3;;;;;;;;;;;;;
2022/10/31 04:27:00;;;;;;;4.9;2.2;;;;;;;;;;;;;
2022/10/31 04:29:25;;;;;;;3.7;2.1;;;;;;;;;;;;;
2022/10/31 04:31:50;;;;;;;4.1;1.8;;;;;;;;;;;;;
2022/10/31 04:34:15;;;;;;;5.9;2.2;;;;;;;;;;;;;
2022/10/31 04:36:40;;;;;;;8.4;2.4;;;;;;;;;;;;;
2022/10/31 04:39:06;;;;;;;6.8;2.3;;;;;;;;;;;;;
2022/10/31 04:41:31;;;;;;;6.7;3.2;;;;;;;;;;;;;
2022/10/31 04:43:58;;;;;;;9.3;4.5;;;;;;;;;;;;;
2022/10/31 04:46:23;;;;;;;9.7;3;;;;;;;;;;;;;
2022/10/31 04:48:48;;;;;;;5.5;2.3;;;;;;;;;;;;;
2022/10/31 04:51:13;;;;;;;4.9;2.2;;;;;;;;;;;;;
2022/10/31 04:53:40;;;;;;;6.9;2.3;;;;;;;;;;;;;
2022/10/31 04:56:05;;;;;;;5.1;2.4;;;;;;;;;;;;;
2022/10/31 04:58:32;;;;;;;7;3;;;;;;;;;;;;;
2022/10/31 05:00:57;;;;;;;7.2;2.8;;;;;;;;;;;;;
2022/10/31 05:03:22;;;;;;;6.2;2.7;;;;;;;;;;;;;
2022/10/31 05:05:48;;;;;;;6.1;2.7;;;;;;;;;;;;;
2022/10/31 05:08:14;;;;;;;7.3;2.7;;;;;;;;;;;;;
2022/10/31 05:10:39;;;;;;;6.1;2.6;;;;;;;;;;;;;
2022/10/31 05:13:04;;;;;;;5.4;2.5;;;;;;;;;;;;;
2022/10/31 05:15:30;;;;;;;8.2;2.3;;;;;;;;;;;;;
2022/10/31 05:17:56;;;;;;;7.7;2.2;;;;;;;;;;;;;
2022/10/31 05:20:21;;;;;;;5.1;2.2;;;;;;;;;;;;;
2022/10/31 05:22:47;;;;;;;4.6;2.2;;;;;;;;;;;;;
2022/10/31 05:25:12;;;;;;;10.4;2.3;;;;;;;;;;;;;
2022/10/31 05:27:38;;;;;;;5.5;2.7;;;;;;;;;;;;;
2022/10/31 05:30:04;;;;;;;6.6;2.2;;;;;;;;;;;;;
2022/10/31 05:32:29;;;;;;;5.8;2.3;;;;;;;;;;;;;
2022/10/31 05:34:54;;;;;;;5;2.3;;;;;;;;;;;;;
2022/10/31 05:37:20;;;;;;;8.6;2.8;;;;;;;;;;;;;
2022/10/31 05:39:45;;;;;;;5.2;2.8;;;;;;;;;;;;;
2022/10/31 05:42:10;;;;;;;7;2.2;;;;;;;;;;;;;
2022/10/31 05:44:35;;;;;;;7.6;2.8;;;;;;;;;;;;;
2022/10/31 05:47:00;;;;;;;8.6;2.5;;;;;;;;;;;;;
2022/10/31 05:49:25;;;;;;;7.3;3;;;;;;;;;;;;;
2022/10/31 05:51:51;;;;;;;6.1;2.7;;;;;;;;;;;;;
2022/10/31 05:54:18;;;;;;;8.6;2.9;;;;;;;;;;;;;
2022/10/31 05:56:43;;;;;;;6.7;2.5;;;;;;;;;;;;;
2022/10/31 05:59:09;;;;;;;4.7;2.3;;;;;;;;;;;;;
2022/10/31 06:01:34;;;;;;;6.2;2.5;;;;;;;;;;;;;
2022/10/31 06:04:00;;;;;;;6.9;2.2;;;;;;;;;;;;;
2022/10/31 06:06:25;;;;;;;5.4;2.5;;;;;;;;;;;;;
2022/10/31 06:08:51;;;;;;;8.3;3.1;;;;;;;;;;;;;
2022/10/31 06:11:16;;;;;;;7.2;3.3;;;;;;;;;;;;;
2022/10/31 06:13:43;;;;;;;7.8;3.3;;;;;;;;;;;;;
2022/10/31 06:16:08;;;;;;;6.6;3.2;;;;;;;;;;;;;
2022/10/31 06:18:33;;;;;;;6.5;3.1;;;;;;;;;;;;;
2022/10/31 06:20:58;;;;;;;10.5;3.4;;;;;;;;;;;;;
2022/10/31 06:23:24;;;;;;;7.9;2.6;;;;;;;;;;;;;
2022/10/31 06:25:49;;;;;;;8.8;3.5;;;;;;;;;;;;;
2022/10/31 06:28:18;;;;;;;6.3;2.9;;;;;;;;;;;;;
2022/10/31 06:30:43;;;;;;;9.4;3.4;;;;;;;;;;;;;
2022/10/31 06:33:08;;;;;;;7.6;2.7;;;;;;;;;;;;;
2022/10/31 06:35:33;;;;;;;10.9;3.8;;;;;;;;;;;;;
2022/10/31 06:38:00;;;;;;;8.8;3.2;;;;;;;;;;;;;
2022/10/31 06:40:25;;;;;;;6.9;3;;;;;;;;;;;;;
2022/10/31 06:42:50;;;;;;;9;3.6;;;;;;;;;;;;;
2022/10/31 06:45:15;;;;;;;11.6;3.8;;;;;;;;;;;;;
2022/10/31 06:47:40;;;;;;;12.3;6.8;;;;;;;;;;;;;
2022/10/31 06:50:06;;;;;;;17.2;9.2;;;;;;;;;;;;;
2022/10/31 06:52:31;;;;;;;23;9.7;;;;;;;;;;;;;
2022/10/31 06:54:56;;;;;;;10.8;4.8;;;;;;;;;;;;;
2022/10/31 06:57:21;;;;;;;9;3.4;;;;;;;;;;;;;
2022/10/31 06:59:48;;;;;;;10.4;3;;;;;;;;;;;;;
2022/10/31 07:02:13;;;;;;;6.4;3;;;;;;;;;;;;;
2022/10/31 07:04:41;;;;;;;6.4;3;;;;;;;;;;;;;
2022/10/31 07:07:06;;;;;;;7.2;2.8;;;;;;;;;;;;;
2022/10/31 07:09:31;;;;;;;6.2;2.6;;;;;;;;;;;;;
2022/10/31 07:11:56;;;;;;;3.6;2.5;;;;;;;;;;;;;
2022/10/31 07:14:21;;;;;;;9.4;3.2;;;;;;;;;;;;;
2022/10/31 07:16:47;;;;;;;7.5;2.5;;;;;;;;;;;;;
2022/10/31 07:19:12;;;;;;;4.6;2.8;;;;;;;;;;;;;
2022/10/31 07:21:37;;;;;;;6.3;2.6;;;;;;;;;;;;;
2022/10/31 07:24:03;;;;;;;7.1;2.4;;;;;;;;;;;;;
2022/10/31 07:26:29;;;;;;;7.3;2.8;;;;;;;;;;;;;
2022/10/31 07:28:54;;;;;;;5.3;2.6;;;;;;;;;;;;;
2022/10/31 07:31:19;;;;;;;8.1;3.9;;;;;;;;;;;;;
2022/10/31 07:33:45;;;;;;;8.6;3;;;;;;;;;;;;;
2022/10/31 07:36:10;;;;;;;6.5;3;;;;;;;;;;;;;
2022/10/31 07:38:37;;;;;;;7.7;2.9;;;;;;;;;;;;;
2022/10/31 07:41:02;;;;;;;10.9;4.2;;;;;;;;;;;;;
2022/10/31 07:43:28;;;;;;;6.9;3.2;;;;;;;;;;;;;
2022/10/31 07:45:53;;;;;;;6.7;3;;;;;;;;;;;;;
2022/10/31 07:48:19;;;;;;;8.5;3.3;;;;;;;;;;;;;
2022/10/31 07:50:44;;;;;;;7.4;2.8;;;;;;;;;;;;;
2022/10/31 07:53:10;;;;;;;7.2;2.8;;;;;;;;;;;;;
2022/10/31 07:55:35;;;;;;;7.8;2.9;;;;;;;;;;;;;
2022/10/31 07:58:02;;;;;;;7.7;2.7;;;;;;;;;;;;;
2022/10/31 08:00:27;;;;;;;7;3.1;;;;;;;;;;;;;
2022/10/31 08:03:13;;;;;;;10;2.9;;;;;;;;;;;;;
2022/10/31 08:05:33;;;;;;;7.8;3.1;;;;;;;;;;;;;
2022/10/31 08:07:58;;;;;;;9.8;3.1;;;;;;;;;;;;;
2022/10/31 08:10:25;;;;;;;7.7;2.9;;;;;;;;;;;;;
2022/10/31 08:12:50;;;;;;;9.9;2.5;;;;;;;;;;;;;
2022/10/31 08:15:17;;;;;;;5.9;2;;;;;;;;;;;;;
2022/10/31 08:17:42;;;;;;;5.6;2;;;;;;;;;;;;;
2022/10/31 08:20:07;;;;;;;7;2.4;;;;;;;;;;;;;
2022/10/31 08:22:33;;;;;;;6;2.3;;;;;;;;;;;;;
2022/10/31 08:24:58;;;;;;;5.5;2.3;;;;;;;;;;;;;
2022/10/31 08:27:25;;;;;;;5.7;1.8;;;;;;;;;;;;;
2022/10/31 08:29:50;;;;;;;6.7;1.6;;;;;;;;;;;;;
2022/10/31 08:32:15;;;;;;;5.3;1.6;;;;;;;;;;;;;
2022/10/31 08:34:40;;;;;;;4.9;2;;;;;;;;;;;;;
2022/10/31 08:37:06;;;;;;;6.8;1.8;;;;;;;;;;;;;
2022/10/31 08:39:31;;;;;;;4.4;1.9;;;;;;;;;;;;;
2022/10/31 08:41:56;;;;;;;3.6;1.7;;;;;;;;;;;;;
2022/10/31 08:44:21;;;;;;;6.2;2.3;;;;;;;;;;;;;
2022/10/31 08:46:48;;;;;;;8.7;2.5;;;;;;;;;;;;;
2022/10/31 08:49:13;;;;;;;33.8;7.4;;;;;;;;;;;;;
2022/10/31 08:51:39;;;;;;;15.1;3.7;;;;;;;;;;;;;
2022/10/31 08:54:04;;;;;;;17.2;5.7;;;;;;;;;;;;;
2022/10/31 08:56:30;;;;;;;13.7;3.6;;;;;;;;;;;;;
2022/10/31 09:01:21;;;;;;;6.3;1.9;;;;;;;;;;;;;
2022/10/31 09:03:46;;;;;;;5.7;2.1;;;;;;;;;;;;;
2022/10/31 09:06:13;;;;;;;5.1;1.9;;;;;;;;;;;;;
2022/10/31 09:08:38;;;;;;;5.7;2.2;;;;;;;;;;;;;
2022/10/31 09:11:06;;;;;;;6.3;2.1;;;;;;;;;;;;;
2022/10/31 09:13:29;;;;;;;7.7;1.9;;;;;;;;;;;;;
2022/10/31 09:15:57;;;;;;;5.5;1.5;;;;;;;;;;;;;
2022/10/31 09:18:22;;;;;;;9.8;2;;;;;;;;;;;;;
2022/10/31 09:20:47;;;;;;;6.8;1.8;;;;;;;;;;;;;
2022/10/31 09:23:12;;;;;;;6.2;2.2;;;;;;;;;;;;;
2022/10/31 09:25:38;;;;;;;6.6;1.7;;;;;;;;;;;;;
2022/10/31 09:28:03;;;;;;;4.7;1.6;;;;;;;;;;;;;
2022/10/31 09:30:30;;;;;;;6.3;1.9;;;;;;;;;;;;;
2022/10/31 09:32:55;;;;;;;4.2;1.7;;;;;;;;;;;;;
2022/10/31 09:35:22;;;;;;;8;1.8;;;;;;;;;;;;;
2022/10/31 09:37:47;;;;;;;6.9;2.4;;;;;;;;;;;;;
2022/10/31 09:40:14;;;;;;;5.8;1.9;;;;;;;;;;;;;
2022/10/31 09:42:39;;;;;;;5.7;1.9;;;;;;;;;;;;;
2022/10/31 09:45:04;;;;;;;8.8;2;;;;;;;;;;;;;
2022/10/31 09:47:32;;;;;;;6.2;2.1;;;;;;;;;;;;;
2022/10/31 09:49:57;;;;;;;7.3;1.9;;;;;;;;;;;;;
2022/10/31 09:52:24;;;;;;;6.2;2.3;;;;;;;;;;;;;
2022/10/31 09:54:50;;;;;;;8.9;2.4;;;;;;;;;;;;;
2022/10/31 09:57:15;;;;;;;7.2;2.5;;;;;;;;;;;;;
2022/10/31 09:59:40;;;;;;;4.9;1.8;;;;;;;;;;;;;
2022/10/31 10:02:05;;;;;;;4.4;1.8;;;;;;;;;;;;;
2022/10/31 10:04:31;;;;;;;7.1;2.2;;;;;;;;;;;;;
2022/10/31 10:06:56;;;;;;;6.1;2.3;;;;;;;;;;;;;
2022/10/31 10:09:21;;;;;;;6.3;1.8;;;;;;;;;;;;;
2022/10/31 10:11:46;;;;;;;5.2;1.7;;;;;;;;;;;;;
2022/10/31 10:14:11;;;;;;;2.7;1;;;;;;;;;;;;;
2022/10/31 10:16:36;;;;;;;4.9;2.1;;;;;;;;;;;;;
2022/10/31 10:19:02;;;;;;;5.3;1.8;;;;;;;;;;;;;
2022/10/31 10:21:26;;;;;;;6.2;1.8;;;;;;;;;;;;;
2022/10/31 10:23:52;;;;;;;6.7;1.7;;;;;;;;;;;;;
2022/10/31 10:26:17;;;;;;;6.7;1.7;;;;;;;;;;;;;
2022/10/31 10:28:42;;;;;;;4.6;1.8;;;;;;;;;;;;;
2022/10/31 10:31:07;;;;;;;6.1;1.7;;;;;;;;;;;;;
2022/10/31 10:33:34;;;;;;;4.5;1.9;;;;;;;;;;;;;
2022/10/31 10:35:59;;;;;;;5.2;1.8;;;;;;;;;;;;;
2022/10/31 10:38:27;;;;;;;4.6;1.8;;;;;;;;;;;;;
2022/10/31 10:40:52;;;;;;;6.7;2;;;;;;;;;;;;;
2022/10/31 10:43:24;;;;;;;6.6;1.7;;;;;;;;;;;;;
2022/10/31 10:48:09;;;;;;;5.4;1.8;;;;;;;;;;;;;
2022/10/31 10:50:33;;;;;;;6;1.6;;;;;;;;;;;;;
2022/10/31 10:52:59;;;;;;;6.1;1.4;;;;;;;;;;;;;
2022/10/31 10:55:24;;;;;;;4.1;1.3;;;;;;;;;;;;;
2022/10/31 10:57:50;;;;;;;7.2;1.7;;;;;;;;;;;;;
2022/10/31 11:00:18;;;;;;;4.7;1.5;;;;;;;;;;;;;
2022/10/31 11:02:42;;;;;;;5.4;1.5;;;;;;;;;;;;;
2022/10/31 11:05:12;;;;;;;6;1.8;;;;;;;;;;;;;
2022/10/31 11:07:40;;;;;;;6.9;1.6;;;;;;;;;;;;;
2022/10/31 11:10:05;;;;;;;6.4;1.8;;;;;;;;;;;;;
2022/10/31 11:12:30;;;;;;;4.2;1.7;;;;;;;;;;;;;
2022/10/31 11:14:55;;;;;;;5;1.5;;;;;;;;;;;;;
2022/10/31 11:17:20;;;;;;;4.8;1.8;;;;;;;;;;;;;
2022/10/31 11:19:45;;;;;;;5;1.8;;;;;;;;;;;;;
2022/10/31 11:22:10;;;;;;;4.9;1.7;;;;;;;;;;;;;
2022/10/31 11:24:35;;;;;;;4.7;1.6;;;;;;;;;;;;;
2022/10/31 11:27:01;;;;;;;4.6;1.6;;;;;;;;;;;;;
2022/10/31 11:29:26;;;;;;;4.4;1.5;;;;;;;;;;;;;
2022/10/31 11:31:51;;;;;;;4.4;1.5;;;;;;;;;;;;;
2022/10/31 11:34:45;;;;;;;4.1;1.7;;;;;;;;;;;;;
2022/10/31 11:37:10;;;;;;;6.3;2.3;;;;;;;;;;;;;
2022/10/31 11:39:35;;;;;;;7;1.8;;;;;;;;;;;;;
2022/10/31 11:42:00;;;;;;;6.6;2.2;;;;;;;;;;;;;
2022/10/31 11:44:27;;;;;;;4.8;1.7;;;;;;;;;;;;;
2022/10/31 11:46:52;;;;;;;5.4;1.7;;;;;;;;;;;;;
2022/10/31 11:49:19;;;;;;;4.4;1.6;;;;;;;;;;;;;
2022/10/31 11:51:44;;;;;;;6.7;2.5;;;;;;;;;;;;;
2022/10/31 11:54:09;;;;;;;4.2;1.2;;;;;;;;;;;;;
2022/10/31 11:56:34;;;;;;;7.9;1.9;;;;;;;;;;;;;
2022/10/31 11:58:59;;;;;;;4;1.2;;;;;;;;;;;;;
2022/10/31 12:01:26;;;;;;;3.5;1.1;;;;;;;;;;;;;
2022/10/31 12:03:51;;;;;;;7.2;1.4;;;;;;;;;;;;;
2022/10/31 12:06:18;;;;;;;4.3;1.4;;;;;;;;;;;;;
2022/10/31 12:08:42;;;;;;;3.4;1;;;;;;;;;;;;;
2022/10/31 12:11:08;;;;;;;1.6;0.9;;;;;;;;;;;;;
2022/10/31 12:13:33;;;;;;;4.5;1.2;;;;;;;;;;;;;
2022/10/31 12:15:58;;;;;;;3.3;1.2;;;;;;;;;;;;;
2022/10/31 12:18:24;;;;;;;3.6;1.3;;;;;;;;;;;;;
2022/10/31 12:20:50;;;;;;;4.3;1.6;;;;;;;;;;;;;
2022/10/31 12:23:16;;;;;;;3.4;1.1;;;;;;;;;;;;;
2022/10/31 12:25:41;;;;;;;5.2;1.3;;;;;;;;;;;;;
2022/10/31 12:28:06;;;;;;;5.9;1.4;;;;;;;;;;;;;
2022/10/31 12:30:31;;;;;;;3.2;1.4;;;;;;;;;;;;;
2022/10/31 12:32:58;;;;;;;3.8;1.4;;;;;;;;;;;;;
2022/10/31 12:35:23;;;;;;;3.4;1.5;;;;;;;;;;;;;
2022/10/31 12:37:50;;;;;;;3.7;1.3;;;;;;;;;;;;;
2022/10/31 12:40:16;;;;;;;5.1;1.6;;;;;;;;;;;;;
2022/10/31 12:42:42;;;;;;;3.9;1.3;;;;;;;;;;;;;
2022/10/31 12:45:09;;;;;;;4;1.1;;;;;;;;;;;;;
2022/10/31 12:47:35;;;;;;;3;1.2;;;;;;;;;;;;;
2022/10/31 12:50:01;;;;;;;4.3;1.1;;;;;;;;;;;;;
2022/10/31 12:52:26;;;;;;;3.1;1.3;;;;;;;;;;;;;
2022/10/31 12:54:51;;;;;;;2.6;1.1;;;;;;;;;;;;;
2022/10/31 12:57:16;;;;;;;3.3;1.4;;;;;;;;;;;;;
2022/10/31 12:59:41;;;;;;;4.5;1.2;;;;;;;;;;;;;
2022/10/31 13:02:06;;;;;;;6.7;1.7;;;;;;;;;;;;;
2022/10/31 13:04:31;;;;;;;5.4;2.1;;;;;;;;;;;;;
2022/10/31 13:06:57;;;;;;;4;1.8;;;;;;;;;;;;;
2022/10/31 13:09:22;;;;;;;4.8;1.5;;;;;;;;;;;;;
2022/10/31 13:11:47;;;;;;;3.9;1.6;;;;;;;;;;;;;
2022/10/31 13:14:12;;;;;;;5.7;1.8;;;;;;;;;;;;;
2022/10/31 13:16:37;;;;;;;5;1.8;;;;;;;;;;;;;
2022/10/31 13:19:02;;;;;;;6.8;1.7;;;;;;;;;;;;;
2022/10/31 13:21:27;;;;;;;3.7;1.4;;;;;;;;;;;;;
2022/10/31 13:23:53;;;;;;;8.1;2;;;;;;;;;;;;;
2022/10/31 13:26:19;;;;;;;5.8;2.1;;;;;;;;;;;;;
2022/10/31 13:28:45;;;;;;;3.8;1.8;;;;;;;;;;;;;
2022/10/31 13:31:10;;;;;;;5;2.1;;;;;;;;;;;;;
2022/10/31 13:33:37;;;;;;;4.8;1.7;;;;;;;;;;;;;
2022/10/31 13:36:02;;;;;;;5.1;2.3;;;;;;;;;;;;;
2022/10/31 13:38:30;;;;;;;4.5;1.8;;;;;;;;;;;;;
2022/10/31 13:40:53;;;;;;;4.3;1.8;;;;;;;;;;;;;
2022/10/31 13:43:18;;;;;;;6.2;1.9;;;;;;;;;;;;;
2022/10/31 13:45:44;;;;;;;4.8;1.6;;;;;;;;;;;;;
2022/10/31 13:48:09;;;;;;;6.1;1.7;;;;;;;;;;;;;
2022/10/31 13:50:35;;;;;;;4.7;1.6;;;;;;;;;;;;;
2022/10/31 13:53:01;;;;;;;4.5;1.6;;;;;;;;;;;;;
2022/10/31 13:55:26;;;;;;;5.1;1.4;;;;;;;;;;;;;
2022/10/31 13:57:54;;;;;;;4;1.8;;;;;;;;;;;;;
2022/10/31 14:00:19;;;;;;;6;1.8;;;;;;;;;;;;;
2022/10/31 14:02:47;;;;;;;7.1;2.1;;;;;;;;;;;;;
2022/10/31 14:05:12;;;;;;;5.9;1.6;;;;;;;;;;;;;
2022/10/31 14:07:37;;;;;;;3.6;1.5;;;;;;;;;;;;;
2022/10/31 14:10:02;;;;;;;4.2;1.6;;;;;;;;;;;;;
2022/10/31 14:12:27;;;;;;;6.1;1.8;;;;;;;;;;;;;
2022/10/31 14:14:52;;;;;;;5.9;1.9;;;;;;;;;;;;;
2022/10/31 14:17:17;;;;;;;6.5;2.4;;;;;;;;;;;;;
2022/10/31 14:19:44;;;;;;;6.5;2.1;;;;;;;;;;;;;
2022/10/31 14:22:10;;;;;;;5.5;1.8;;;;;;;;;;;;;
2022/10/31 14:24:37;;;;;;;6.9;1.9;;;;;;;;;;;;;
2022/10/31 14:27:02;;;;;;;4.4;1.9;;;;;;;;;;;;;
2022/10/31 14:29:32;;;;;;;5.6;2.2;;;;;;;;;;;;;
2022/10/31 14:31:57;;;;;;;7.9;2.2;;;;;;;;;;;;;
2022/10/31 14:34:22;;;;;;;6.8;1.8;;;;;;;;;;;;;
2022/10/31 14:36:47;;;;;;;6.3;1.8;;;;;;;;;;;;;
2022/10/31 14:39:12;;;;;;;5.3;2;;;;;;;;;;;;;
2022/10/31 14:41:37;;;;;;;5.6;1.7;;;;;;;;;;;;;
2022/10/31 14:44:03;;;;;;;4.8;1.9;;;;;;;;;;;;;
2022/10/31 14:46:28;;;;;;;8.6;2.7;;;;;;;;;;;;;
2022/10/31 14:48:53;;;;;;;3.6;1.7;;;;;;;;;;;;;
2022/10/31 14:51:18;;;;;;;5.7;1.8;;;;;;;;;;;;;
2022/10/31 14:53:43;;;;;;;4.1;2;;;;;;;;;;;;;
2022/10/31 14:56:08;;;;;;;5.2;2;;;;;;;;;;;;;
2022/10/31 14:58:33;;;;;;;4.6;1.7;;;;;;;;;;;;;
2022/10/31 15:00:58;;;;;;;5.6;2;;;;;;;;;;;;;
2022/10/31 15:03:24;;;;;;;11;2.4;;;;;;;;;;;;;
2022/10/31 15:05:49;;;;;;;3.9;2;;;;;;;;;;;;;
2022/10/31 15:08:16;;;;;;;6.6;2.1;;;;;;;;;;;;;
2022/10/31 15:10:41;;;;;;;5.1;1.7;;;;;;;;;;;;;
2022/10/31 15:13:06;;;;;;;4.5;2.3;;;;;;;;;;;;;
2022/10/31 15:15:33;;;;;;;8;1.7;;;;;;;;;;;;;
2022/10/31 15:17:57;;;;;;;7.9;2.6;;;;;;;;;;;;;
2022/10/31 15:20:22;;;;;;;4.5;1.9;;;;;;;;;;;;;
2022/10/31 15:22:47;;;;;;;6.1;1.6;;;;;;;;;;;;;
2022/10/31 15:25:15;;;;;;;6.8;2.1;;;;;;;;;;;;;
2022/10/31 15:27:40;;;;;;;6.2;1.7;;;;;;;;;;;;;
2022/10/31 15:30:07;;;;;;;6.3;2;;;;;;;;;;;;;
2022/10/31 15:32:32;;;;;;;6.9;2.2;;;;;;;;;;;;;
2022/10/31 15:34:58;;;;;;;4.1;1.9;;;;;;;;;;;;;
2022/10/31 15:37:24;;;;;;;4.6;1.5;;;;;;;;;;;;;
2022/10/31 15:39:48;;;;;;;7.7;2.1;;;;;;;;;;;;;
2022/10/31 15:42:13;;;;;;;7;2.4;;;;;;;;;;;;;
2022/10/31 15:44:39;;;;;;;6.8;2.2;;;;;;;;;;;;;
2022/10/31 15:47:04;;;;;;;6.4;2.5;;;;;;;;;;;;;
2022/10/31 15:49:29;;;;;;;9.8;3.1;;;;;;;;;;;;;
2022/10/31 15:51:54;;;;;;;7.2;2.4;;;;;;;;;;;;;
2022/10/31 15:54:21;;;;;;;6.1;2.7;;;;;;;;;;;;;
2022/10/31 15:56:46;;;;;;;5.9;2.6;;;;;;;;;;;;;
2022/10/31 15:59:12;;;;;;;5.7;2.5;;;;;;;;;;;;;
2022/10/31 16:01:37;;;;;;;15.8;5;;;;;;;;;;;;;
2022/10/31 16:04:04;;;;;;;11.6;3.5;;;;;;;;;;;;;
2022/10/31 16:06:29;;;;;;;7.2;3.1;;;;;;;;;;;;;
2022/10/31 16:08:56;;;;;;;8.6;2.3;;;;;;;;;;;;;
2022/10/31 16:11:21;;;;;;;6.8;2.2;;;;;;;;;;;;;
2022/10/31 16:13:47;;;;;;;4.9;1.9;;;;;;;;;;;;;
2022/10/31 16:16:12;;;;;;;5.7;2;;;;;;;;;;;;;
2022/10/31 16:18:38;;;;;;;8.9;2.8;;;;;;;;;;;;;
2022/10/31 16:21:03;;;;;;;10;3;;;;;;;;;;;;;
2022/10/31 16:23:28;;;;;;;7.9;3.3;;;;;;;;;;;;;
2022/10/31 16:25:54;;;;;;;11.7;3;;;;;;;;;;;;;
2022/10/31 16:28:19;;;;;;;5.7;2.6;;;;;;;;;;;;;
2022/10/31 16:31:00;;;;;;;8;3.2;;;;;;;;;;;;;
2022/10/31 16:33:25;;;;;;;9.2;3;;;;;;;;;;;;;
2022/10/31 16:35:51;;;;;;;5.8;2.7;;;;;;;;;;;;;
2022/10/31 16:38:17;;;;;;;7.8;2.8;;;;;;;;;;;;;
2022/10/31 16:40:42;;;;;;;6.2;3.3;;;;;;;;;;;;;
2022/10/31 16:43:09;;;;;;;7.4;3.6;;;;;;;;;;;;;
2022/10/31 16:45:34;;;;;;;11;4.1;;;;;;;;;;;;;
2022/10/31 16:48:00;;;;;;;5.4;3.2;;;;;;;;;;;;;
2022/10/31 16:50:25;;;;;;;9.7;3.7;;;;;;;;;;;;;
2022/10/31 16:52:53;;;;;;;8.4;4;;;;;;;;;;;;;
2022/10/31 16:55:18;;;;;;;10.2;4.2;;;;;;;;;;;;;
2022/10/31 16:57:46;;;;;;;11.3;4.4;;;;;;;;;;;;;
2022/10/31 17:00:12;;;;;;;11.2;4.7;;;;;;;;;;;;;
2022/10/31 17:02:42;;;;;;;11.4;4.8;;;;;;;;;;;;;
2022/10/31 17:05:07;;;;;;;10.7;4.3;;;;;;;;;;;;;
2022/10/31 17:07:34;;;;;;;9.8;4.3;;;;;;;;;;;;;
2022/10/31 17:09:59;;;;;;;9.6;4.8;;;;;;;;;;;;;
2022/10/31 17:12:24;;;;;;;10.3;5.5;;;;;;;;;;;;;
2022/10/31 17:14:49;;;;;;;10.3;6.4;;;;;;;;;;;;;
2022/10/31 17:17:16;;;;;;;12.9;6.4;;;;;;;;;;;;;
2022/10/31 17:19:41;;;;;;;9.9;5.5;;;;;;;;;;;;;
2022/10/31 17:22:07;;;;;;;11.7;4.6;;;;;;;;;;;;;
2022/10/31 17:24:32;;;;;;;8.7;4.8;;;;;;;;;;;;;
2022/10/31 17:26:58;;;;;;;10.1;4.8;;;;;;;;;;;;;
2022/10/31 17:29:23;;;;;;;9.8;4.8;;;;;;;;;;;;;
2022/10/31 17:31:48;;;;;;;11.5;4.9;;;;;;;;;;;;;
2022/10/31 17:34:13;;;;;;;14.1;5;;;;;;;;;;;;;
2022/10/31 17:36:40;;;;;;;11.2;5.1;;;;;;;;;;;;;
2022/10/31 17:39:08;;;;;;;10.5;4.8;;;;;;;;;;;;;
2022/10/31 17:41:30;;;;;;;7.5;5;;;;;;;;;;;;;
2022/10/31 17:43:55;;;;;;;7.5;3.7;;;;;;;;;;;;;
2022/10/31 17:46:20;;;;;;;10.8;3.8;;;;;;;;;;;;;
2022/10/31 17:48:45;;;;;;;7;3.5;;;;;;;;;;;;;
2022/10/31 17:51:11;;;;;;;8.7;3.8;;;;;;;;;;;;;
2022/10/31 17:53:37;;;;;;;10.5;5.1;;;;;;;;;;;;;
2022/10/31 17:56:02;;;;;;;13.5;4.9;;;;;;;;;;;;;
2022/10/31 17:58:29;;;;;;;11.8;5.5;;;;;;;;;;;;;
2022/10/31 18:00:54;;;;;;;8.9;4.7;;;;;;;;;;;;;
2022/10/31 18:03:20;;;;;;;13.8;7.5;;;;;;;;;;;;;
2022/10/31 18:05:45;;;;;;;13.2;7.6;;;;;;;;;;;;;
2022/10/31 18:08:10;;;;;;;15.3;8.4;;;;;;;;;;;;;
2022/10/31 18:10:35;;;;;;;10.2;5.9;;;;;;;;;;;;;
2022/10/31 18:13:03;;;;;;;9.2;5.1;;;;;;;;;;;;;
2022/10/31 18:15:28;;;;;;;12.3;6;;;;;;;;;;;;;
2022/10/31 18:17:53;;;;;;;7.8;5.3;;;;;;;;;;;;;
2022/10/31 18:20:18;;;;;;;10.9;5.7;;;;;;;;;;;;;
2022/10/31 18:22:44;;;;;;;11.5;5.3;;;;;;;;;;;;;
2022/10/31 18:25:09;;;;;;;10.6;6.4;;;;;;;;;;;;;
2022/10/31 18:27:36;;;;;;;9.5;4.8;;;;;;;;;;;;;
2022/10/31 18:30:01;;;;;;;11.1;5.3;;;;;;;;;;;;;
2022/10/31 18:32:29;;;;;;;10.8;5.6;;;;;;;;;;;;;
2022/10/31 18:34:54;;;;;;;8.4;4.5;;;;;;;;;;;;;
2022/10/31 18:37:19;;;;;;;9.2;5;;;;;;;;;;;;;
2022/10/31 18:39:44;;;;;;;7.1;3.8;;;;;;;;;;;;;
2022/10/31 18:42:10;;;;;;;10;4.7;;;;;;;;;;;;;
2022/10/31 18:44:43;;;;;;;12.4;8;;;;;;;;;;;;;
2022/10/31 18:47:09;;;;;;;16.8;9.1;;;;;;;;;;;;;
2022/10/31 18:49:35;;;;;;;26.9;19.6;;;;;;;;;;;;;
2022/10/31 18:52:00;;;;;;;21.2;12.5;;;;;;;;;;;;;
2022/10/31 18:54:25;;;;;;;58;32.5;;;;;;;;;;;;;
2022/10/31 18:56:50;;;;;;;59.1;33.3;;;;;;;;;;;;;